Airfield :
LOGIN :

Register | Disclaimer

   EN    FR    IT 

 










Legend :    VFR   Marginal VFR   IFR   Intensive IFR   Very Intensive IFR
Visi :
Ceiling :
>= 8 km
>= 3000ft
5 to 8 km
1000 to 3000 ft
1500m to 5 km
500 to 1000 ft
800 to 1500m
200 to 500 ft
< 800m
< 200 ft
Symbols :   Thunderstorms  Fog  Heavy snow  Heavy precipitations  Wind > 20 kt
SIGMETs :     Misc.  Thunderstorms  Icing  Turbulence  Mountain Waves  Volcanic Ashes







- Airport Elevation : 299 ft
- IATA code : EDM
- Download approach charts


LFRI - La Roche Sur Yon - Les Ajoncs

CURRENT METAR :
  • 301630Z AUTO 22015KT 190V260 9999 BKN033 BKN042 BKN050 12/05 Q1000 TEMPO 2000 TSRA BKN010 BKN040CB BECMG 23012G25KT

EXPIRED METARs :
  • 301600Z AUTO 22014KT 200V270 9999 BKN035 BKN043 BKN070 12/06 Q1000 TEMPO 2000 TSRA BKN010 BKN040CB
  • 301530Z AUTO 24016G29KT 200V280 9999 BKN029 OVC036 11/06 Q1001 TEMPO 2000 TSRA BKN010 BKN040CB
  • 301500Z AUTO 22014KT 9999 SCT026 SCT035 BKN150 11/06 Q1000 TEMPO 2000 TSRA BKN010 BKN040CB
  • 301430Z AUTO 21015KT 9999 BKN025 BKN031 BKN038 11/07 Q1000 TEMPO 2000 TSRA BKN010 BKN040CB BECMG 23012G25KT
  • 301400Z AUTO 21013KT 180V240 9999 FEW016/// BKN025/// BKN038/// ///CB 10/08 Q1000 TEMPO 2000 TSRA BKN010 BKN040CB

TAF AMD TAF LFRI
Valid from the 30 at 13:00 until the 01 at 12:00 UTC


301310Z 3013/0112 23012G25KT 9999 RA SCT020 BKN030
TEMPO 3013/0104 4000 RA BKN010 BKN040CB
PROB40
TEMPO 3013/3022 2000 TSRA
FM011000 24014G24KT 9999 BKN050
No reported NOTAMs for that airfield.
1 SIGMET reported for the Brest FIR (LFRR) :
 
Embedded thunderstorms
LFRR SIGMET 8 VALID 301500/301700 LFPW
LFRR BREST FIR/UIR EMBD TS OBS WI N4915 W00015 - N4830 W00015 - N4830 W00115 - N4915 W00115 TOP FL300 STNR NC=



MET'MAP, your aeronautical weather chart ! - Copyright ORBIFLY December 2007 - Disclaimer

ORBIFLY MET'MAP TEAM :

Programming & Development : Alexandra Zaïnal
Concept & Development : Baudouin d'Aumeries
Co-Development & Prog : Marc-Olivier Méhu
Technical & hardware support : Manuel Goepfert

Contact : metmap@orbifly.com




SOURCES & CREDITS :

   NOAA